sensor_id;sensor_type;location;lat;lon;timestamp;P1;durP1;ratioP1;P2;durP2;ratioP2
82176;SDS011;71758;48.714;9.584;2024-02-26T00:01:37;3.45;;;1.70;;
82176;SDS011;71758;48.714;9.584;2024-02-26T00:04:03;4.38;;;1.98;;
82176;SDS011;71758;48.714;9.584;2024-02-26T00:06:30;3.83;;;1.60;;
82176;SDS011;71758;48.714;9.584;2024-02-26T00:08:56;4.93;;;2.00;;
82176;SDS011;71758;48.714;9.584;2024-02-26T00:11:25;3.72;;;1.70;;
82176;SDS011;71758;48.714;9.584;2024-02-26T00:13:51;4.35;;;1.50;;
82176;SDS011;71758;48.714;9.584;2024-02-26T00:16:19;5.20;;;1.95;;
82176;SDS011;71758;48.714;9.584;2024-02-26T00:18:44;4.45;;;1.73;;
82176;SDS011;71758;48.714;9.584;2024-02-26T00:21:12;4.60;;;1.73;;
82176;SDS011;71758;48.714;9.584;2024-02-26T00:23:37;3.97;;;1.70;;
82176;SDS011;71758;48.714;9.584;2024-02-26T00:26:06;3.85;;;1.70;;
82176;SDS011;71758;48.714;9.584;2024-02-26T00:28:33;3.83;;;1.70;;
82176;SDS011;71758;48.714;9.584;2024-02-26T00:30:59;4.53;;;1.80;;
82176;SDS011;71758;48.714;9.584;2024-02-26T00:33:24;3.30;;;1.20;;
82176;SDS011;71758;48.714;9.584;2024-02-26T00:35:49;5.00;;;1.63;;
82176;SDS011;71758;48.714;9.584;2024-02-26T00:38:15;4.35;;;1.77;;
82176;SDS011;71758;48.714;9.584;2024-02-26T00:40:40;3.83;;;1.60;;
82176;SDS011;71758;48.714;9.584;2024-02-26T00:43:06;5.30;;;2.13;;
82176;SDS011;71758;48.714;9.584;2024-02-26T00:45:31;4.00;;;1.55;;
82176;SDS011;71758;48.714;9.584;2024-02-26T00:48:01;4.03;;;1.30;;
82176;SDS011;71758;48.714;9.584;2024-02-26T00:50:30;3.58;;;1.40;;
82176;SDS011;71758;48.714;9.584;2024-02-26T00:52:56;5.57;;;2.03;;
82176;SDS011;71758;48.714;9.584;2024-02-26T00:55:21;4.03;;;1.50;;
82176;SDS011;71758;48.714;9.584;2024-02-26T00:57:46;5.13;;;1.55;;
82176;SDS011;71758;48.714;9.584;2024-02-26T01:00:12;5.18;;;1.40;;
82176;SDS011;71758;48.714;9.584;2024-02-26T01:02:38;4.68;;;1.63;;
82176;SDS011;71758;48.714;9.584;2024-02-26T01:05:04;4.25;;;1.42;;
82176;SDS011;71758;48.714;9.584;2024-02-26T01:07:31;4.35;;;1.67;;
82176;SDS011;71758;48.714;9.584;2024-02-26T01:12:26;8.77;;;1.80;;
82176;SDS011;71758;48.714;9.584;2024-02-26T01:14:51;3.50;;;1.35;;
82176;SDS011;71758;48.714;9.584;2024-02-26T01:17:16;4.63;;;1.52;;
82176;SDS011;71758;48.714;9.584;2024-02-26T01:19:42;4.63;;;1.70;;
82176;SDS011;71758;48.714;9.584;2024-02-26T01:22:08;5.18;;;1.73;;
82176;SDS011;71758;48.714;9.584;2024-02-26T01:24:33;3.83;;;1.60;;
82176;SDS011;71758;48.714;9.584;2024-02-26T01:27:02;4.38;;;1.70;;
82176;SDS011;71758;48.714;9.584;2024-02-26T01:29:36;4.57;;;1.88;;
82176;SDS011;71758;48.714;9.584;2024-02-26T01:32:01;8.45;;;2.00;;
82176;SDS011;71758;48.714;9.584;2024-02-26T01:34:29;4.85;;;1.85;;
82176;SDS011;71758;48.714;9.584;2024-02-26T01:36:54;6.90;;;2.15;;
82176;SDS011;71758;48.714;9.584;2024-02-26T01:39:21;6.25;;;1.67;;
82176;SDS011;71758;48.714;9.584;2024-02-26T01:41:47;4.90;;;2.05;;
82176;SDS011;71758;48.714;9.584;2024-02-26T01:44:12;5.15;;;1.98;;
82176;SDS011;71758;48.714;9.584;2024-02-26T01:46:40;4.32;;;2.00;;
82176;SDS011;71758;48.714;9.584;2024-02-26T01:49:07;4.15;;;1.92;;
82176;SDS011;71758;48.714;9.584;2024-02-26T01:51:33;4.95;;;2.10;;
82176;SDS011;71758;48.714;9.584;2024-02-26T01:54:00;3.88;;;1.63;;
82176;SDS011;71758;48.714;9.584;2024-02-26T01:56:27;4.13;;;2.00;;
82176;SDS011;71758;48.714;9.584;2024-02-26T01:58:55;4.95;;;2.28;;
82176;SDS011;71758;48.714;9.584;2024-02-26T02:01:21;4.95;;;1.77;;
82176;SDS011;71758;48.714;9.584;2024-02-26T02:03:48;3.97;;;1.77;;
82176;SDS011;71758;48.714;9.584;2024-02-26T02:06:16;4.97;;;2.17;;
82176;SDS011;71758;48.714;9.584;2024-02-26T02:08:42;6.10;;;2.30;;
82176;SDS011;71758;48.714;9.584;2024-02-26T02:11:07;4.65;;;1.90;;
82176;SDS011;71758;48.714;9.584;2024-02-26T02:13:35;6.72;;;2.55;;
82176;SDS011;71758;48.714;9.584;2024-02-26T02:16:00;7.10;;;2.28;;
82176;SDS011;71758;48.714;9.584;2024-02-26T02:18:25;5.57;;;2.22;;
82176;SDS011;71758;48.714;9.584;2024-02-26T02:20:51;4.80;;;1.95;;
82176;SDS011;71758;48.714;9.584;2024-02-26T02:23:16;4.68;;;2.25;;
82176;SDS011;71758;48.714;9.584;2024-02-26T02:25:42;6.07;;;2.40;;
82176;SDS011;71758;48.714;9.584;2024-02-26T02:28:07;4.63;;;2.00;;
82176;SDS011;71758;48.714;9.584;2024-02-26T02:30:33;4.45;;;2.40;;
82176;SDS011;71758;48.714;9.584;2024-02-26T02:33:00;5.00;;;2.20;;
82176;SDS011;71758;48.714;9.584;2024-02-26T02:35:26;5.40;;;2.70;;
82176;SDS011;71758;48.714;9.584;2024-02-26T02:37:51;5.80;;;2.40;;
82176;SDS011;71758;48.714;9.584;2024-02-26T02:40:17;6.35;;;2.38;;
82176;SDS011;71758;48.714;9.584;2024-02-26T02:42:42;5.43;;;2.40;;
82176;SDS011;71758;48.714;9.584;2024-02-26T02:45:08;5.72;;;2.47;;
82176;SDS011;71758;48.714;9.584;2024-02-26T02:47:37;5.53;;;2.00;;
82176;SDS011;71758;48.714;9.584;2024-02-26T02:50:07;6.32;;;2.10;;
82176;SDS011;71758;48.714;9.584;2024-02-26T02:52:33;5.13;;;2.30;;
82176;SDS011;71758;48.714;9.584;2024-02-26T02:54:58;4.55;;;1.92;;
82176;SDS011;71758;48.714;9.584;2024-02-26T02:57:24;5.47;;;2.15;;
82176;SDS011;71758;48.714;9.584;2024-02-26T02:59:52;5.07;;;2.15;;
82176;SDS011;71758;48.714;9.584;2024-02-26T03:02:18;4.38;;;2.03;;
82176;SDS011;71758;48.714;9.584;2024-02-26T03:04:43;4.68;;;2.10;;
82176;SDS011;71758;48.714;9.584;2024-02-26T03:07:08;5.30;;;2.38;;
82176;SDS011;71758;48.714;9.584;2024-02-26T03:09:34;6.32;;;2.58;;
82176;SDS011;71758;48.714;9.584;2024-02-26T03:11:59;4.35;;;2.10;;
82176;SDS011;71758;48.714;9.584;2024-02-26T03:14:25;5.15;;;2.28;;
82176;SDS011;71758;48.714;9.584;2024-02-26T03:16:53;5.50;;;2.47;;
82176;SDS011;71758;48.714;9.584;2024-02-26T03:19:19;6.13;;;2.15;;
82176;SDS011;71758;48.714;9.584;2024-02-26T03:21:45;4.28;;;1.90;;
82176;SDS011;71758;48.714;9.584;2024-02-26T03:24:10;5.30;;;2.38;;
82176;SDS011;71758;48.714;9.584;2024-02-26T03:26:37;5.30;;;2.50;;
82176;SDS011;71758;48.714;9.584;2024-02-26T03:29:02;7.40;;;2.38;;
82176;SDS011;71758;48.714;9.584;2024-02-26T03:31:28;6.05;;;2.33;;
82176;SDS011;71758;48.714;9.584;2024-02-26T03:33:53;5.15;;;1.85;;
82176;SDS011;71758;48.714;9.584;2024-02-26T03:36:18;5.78;;;2.58;;
82176;SDS011;71758;48.714;9.584;2024-02-26T03:38:44;6.13;;;2.20;;
82176;SDS011;71758;48.714;9.584;2024-02-26T03:41:09;5.53;;;2.40;;
82176;SDS011;71758;48.714;9.584;2024-02-26T03:43:35;5.70;;;2.55;;
82176;SDS011;71758;48.714;9.584;2024-02-26T03:46:00;5.78;;;2.22;;
82176;SDS011;71758;48.714;9.584;2024-02-26T03:48:26;5.68;;;2.40;;
82176;SDS011;71758;48.714;9.584;2024-02-26T03:50:51;5.18;;;2.40;;
82176;SDS011;71758;48.714;9.584;2024-02-26T03:53:16;4.63;;;1.98;;
82176;SDS011;71758;48.714;9.584;2024-02-26T03:55:42;6.80;;;2.45;;
82176;SDS011;71758;48.714;9.584;2024-02-26T03:58:07;5.05;;;2.28;;
82176;SDS011;71758;48.714;9.584;2024-02-26T04:00:33;5.80;;;2.08;;
82176;SDS011;71758;48.714;9.584;2024-02-26T04:02:58;4.65;;;1.95;;
82176;SDS011;71758;48.714;9.584;2024-02-26T04:05:24;5.40;;;2.28;;
82176;SDS011;71758;48.714;9.584;2024-02-26T04:07:49;5.68;;;2.17;;
82176;SDS011;71758;48.714;9.584;2024-02-26T04:10:14;4.70;;;2.25;;
82176;SDS011;71758;48.714;9.584;2024-02-26T04:12:40;4.95;;;2.45;;
82176;SDS011;71758;48.714;9.584;2024-02-26T04:15:09;6.05;;;2.42;;
82176;SDS011;71758;48.714;9.584;2024-02-26T04:17:35;5.85;;;2.60;;
82176;SDS011;71758;48.714;9.584;2024-02-26T04:20:01;5.72;;;2.25;;
82176;SDS011;71758;48.714;9.584;2024-02-26T04:22:27;5.32;;;2.50;;
82176;SDS011;71758;48.714;9.584;2024-02-26T04:24:52;3.63;;;1.58;;
82176;SDS011;71758;48.714;9.584;2024-02-26T04:27:18;5.00;;;1.80;;
82176;SDS011;71758;48.714;9.584;2024-02-26T04:29:43;5.15;;;2.35;;
82176;SDS011;71758;48.714;9.584;2024-02-26T04:32:08;6.78;;;2.40;;
82176;SDS011;71758;48.714;9.584;2024-02-26T04:34:34;4.03;;;1.92;;
82176;SDS011;71758;48.714;9.584;2024-02-26T04:37:00;5.57;;;2.50;;
82176;SDS011;71758;48.714;9.584;2024-02-26T04:39:25;4.68;;;2.22;;
82176;SDS011;71758;48.714;9.584;2024-02-26T04:41:51;4.82;;;2.08;;
82176;SDS011;71758;48.714;9.584;2024-02-26T04:44:16;5.18;;;2.22;;
82176;SDS011;71758;48.714;9.584;2024-02-26T04:46:41;9.23;;;2.40;;
82176;SDS011;71758;48.714;9.584;2024-02-26T04:49:07;4.60;;;2.17;;
82176;SDS011;71758;48.714;9.584;2024-02-26T04:51:32;5.32;;;2.00;;
82176;SDS011;71758;48.714;9.584;2024-02-26T04:53:57;4.80;;;2.08;;
82176;SDS011;71758;48.714;9.584;2024-02-26T04:56:23;6.43;;;2.40;;
82176;SDS011;71758;48.714;9.584;2024-02-26T04:58:48;5.40;;;2.40;;
82176;SDS011;71758;48.714;9.584;2024-02-26T05:01:14;7.65;;;2.15;;
82176;SDS011;71758;48.714;9.584;2024-02-26T05:03:41;5.32;;;2.22;;
82176;SDS011;71758;48.714;9.584;2024-02-26T05:06:07;5.45;;;2.33;;
82176;SDS011;71758;48.714;9.584;2024-02-26T05:08:34;6.82;;;2.95;;
82176;SDS011;71758;48.714;9.584;2024-02-26T05:11:00;5.07;;;2.42;;
82176;SDS011;71758;48.714;9.584;2024-02-26T05:13:27;5.78;;;2.50;;
82176;SDS011;71758;48.714;9.584;2024-02-26T05:15:53;6.00;;;2.67;;
82176;SDS011;71758;48.714;9.584;2024-02-26T05:18:18;6.38;;;2.85;;
82176;SDS011;71758;48.714;9.584;2024-02-26T05:20:46;4.50;;;2.28;;
82176;SDS011;71758;48.714;9.584;2024-02-26T05:23:12;6.80;;;2.20;;
82176;SDS011;71758;48.714;9.584;2024-02-26T05:25:38;4.68;;;2.42;;
82176;SDS011;71758;48.714;9.584;2024-02-26T05:28:03;8.80;;;2.97;;
82176;SDS011;71758;48.714;9.584;2024-02-26T05:30:29;5.85;;;2.25;;
82176;SDS011;71758;48.714;9.584;2024-02-26T05:32:54;6.05;;;3.00;;
82176;SDS011;71758;48.714;9.584;2024-02-26T05:35:20;6.05;;;2.65;;
82176;SDS011;71758;48.714;9.584;2024-02-26T05:37:46;6.65;;;2.78;;
82176;SDS011;71758;48.714;9.584;2024-02-26T05:40:11;5.75;;;2.90;;
82176;SDS011;71758;48.714;9.584;2024-02-26T05:42:37;5.43;;;2.30;;
82176;SDS011;71758;48.714;9.584;2024-02-26T05:45:02;5.65;;;2.28;;
82176;SDS011;71758;48.714;9.584;2024-02-26T05:47:32;5.75;;;2.80;;
82176;SDS011;71758;48.714;9.584;2024-02-26T05:49:57;5.75;;;2.40;;
82176;SDS011;71758;48.714;9.584;2024-02-26T05:52:24;6.32;;;2.70;;
82176;SDS011;71758;48.714;9.584;2024-02-26T05:54:49;4.93;;;2.35;;
82176;SDS011;71758;48.714;9.584;2024-02-26T05:57:15;6.07;;;2.70;;
82176;SDS011;71758;48.714;9.584;2024-02-26T05:59:40;8.35;;;3.55;;
82176;SDS011;71758;48.714;9.584;2024-02-26T06:02:06;7.55;;;3.20;;
82176;SDS011;71758;48.714;9.584;2024-02-26T06:04:31;5.25;;;2.45;;
82176;SDS011;71758;48.714;9.584;2024-02-26T06:06:56;4.85;;;2.20;;
82176;SDS011;71758;48.714;9.584;2024-02-26T06:09:22;6.45;;;3.10;;
82176;SDS011;71758;48.714;9.584;2024-02-26T06:11:48;8.60;;;3.20;;
82176;SDS011;71758;48.714;9.584;2024-02-26T06:14:13;6.03;;;2.78;;
82176;SDS011;71758;48.714;9.584;2024-02-26T06:16:43;11.45;;;2.60;;
82176;SDS011;71758;48.714;9.584;2024-02-26T06:19:08;5.07;;;2.20;;
82176;SDS011;71758;48.714;9.584;2024-02-26T06:21:33;4.75;;;2.25;;
82176;SDS011;71758;48.714;9.584;2024-02-26T06:23:59;6.75;;;2.42;;
82176;SDS011;71758;48.714;9.584;2024-02-26T06:26:24;4.43;;;2.10;;
82176;SDS011;71758;48.714;9.584;2024-02-26T06:28:53;5.13;;;2.13;;
82176;SDS011;71758;48.714;9.584;2024-02-26T06:31:19;4.40;;;2.00;;
82176;SDS011;71758;48.714;9.584;2024-02-26T06:33:47;5.57;;;2.13;;
82176;SDS011;71758;48.714;9.584;2024-02-26T06:36:15;7.05;;;3.10;;
82176;SDS011;71758;48.714;9.584;2024-02-26T06:38:41;11.38;;;4.22;;
82176;SDS011;71758;48.714;9.584;2024-02-26T06:41:06;10.05;;;4.03;;
82176;SDS011;71758;48.714;9.584;2024-02-26T06:43:32;9.20;;;3.65;;
82176;SDS011;71758;48.714;9.584;2024-02-26T06:45:57;7.50;;;2.55;;
82176;SDS011;71758;48.714;9.584;2024-02-26T06:48:26;6.20;;;2.25;;
82176;SDS011;71758;48.714;9.584;2024-02-26T06:50:51;4.97;;;2.10;;
82176;SDS011;71758;48.714;9.584;2024-02-26T06:53:16;7.75;;;3.33;;
82176;SDS011;71758;48.714;9.584;2024-02-26T06:55:42;7.25;;;3.15;;
82176;SDS011;71758;48.714;9.584;2024-02-26T06:58:08;8.73;;;3.55;;
82176;SDS011;71758;48.714;9.584;2024-02-26T07:00:33;8.77;;;3.70;;
82176;SDS011;71758;48.714;9.584;2024-02-26T07:02:59;6.35;;;3.17;;
82176;SDS011;71758;48.714;9.584;2024-02-26T07:05:24;7.60;;;3.38;;
82176;SDS011;71758;48.714;9.584;2024-02-26T07:07:49;6.38;;;3.38;;
82176;SDS011;71758;48.714;9.584;2024-02-26T07:10:15;8.82;;;3.38;;
82176;SDS011;71758;48.714;9.584;2024-02-26T07:12:40;8.68;;;3.45;;
82176;SDS011;71758;48.714;9.584;2024-02-26T07:15:06;16.05;;;6.35;;
82176;SDS011;71758;48.714;9.584;2024-02-26T07:17:33;9.85;;;4.80;;
82176;SDS011;71758;48.714;9.584;2024-02-26T07:19:59;5.65;;;2.75;;
82176;SDS011;71758;48.714;9.584;2024-02-26T07:22:24;5.50;;;2.40;;
82176;SDS011;71758;48.714;9.584;2024-02-26T07:24:50;5.32;;;2.60;;
82176;SDS011;71758;48.714;9.584;2024-02-26T07:27:16;6.18;;;2.92;;
82176;SDS011;71758;48.714;9.584;2024-02-26T07:29:46;5.55;;;2.80;;
82176;SDS011;71758;48.714;9.584;2024-02-26T07:32:11;4.70;;;2.40;;
82176;SDS011;71758;48.714;9.584;2024-02-26T07:34:37;4.35;;;2.00;;
82176;SDS011;71758;48.714;9.584;2024-02-26T07:37:06;4.70;;;1.92;;
82176;SDS011;71758;48.714;9.584;2024-02-26T07:39:32;5.47;;;1.90;;
82176;SDS011;71758;48.714;9.584;2024-02-26T07:42:02;9.40;;;3.90;;
82176;SDS011;71758;48.714;9.584;2024-02-26T07:44:28;9.23;;;4.32;;
82176;SDS011;71758;48.714;9.584;2024-02-26T07:46:53;8.93;;;4.10;;
82176;SDS011;71758;48.714;9.584;2024-02-26T07:49:18;10.80;;;4.72;;
82176;SDS011;71758;48.714;9.584;2024-02-26T07:51:44;9.50;;;4.38;;
82176;SDS011;71758;48.714;9.584;2024-02-26T07:54:09;9.35;;;3.95;;
82176;SDS011;71758;48.714;9.584;2024-02-26T07:56:35;7.60;;;3.55;;
82176;SDS011;71758;48.714;9.584;2024-02-26T07:59:00;8.98;;;3.47;;
82176;SDS011;71758;48.714;9.584;2024-02-26T08:01:25;5.43;;;2.60;;
82176;SDS011;71758;48.714;9.584;2024-02-26T08:03:52;6.22;;;2.72;;
82176;SDS011;71758;48.714;9.584;2024-02-26T08:06:20;7.25;;;2.85;;
82176;SDS011;71758;48.714;9.584;2024-02-26T08:08:46;5.53;;;3.00;;
82176;SDS011;71758;48.714;9.584;2024-02-26T08:11:11;4.93;;;2.20;;
82176;SDS011;71758;48.714;9.584;2024-02-26T08:13:39;9.93;;;3.72;;
82176;SDS011;71758;48.714;9.584;2024-02-26T08:16:05;10.85;;;5.30;;
82176;SDS011;71758;48.714;9.584;2024-02-26T08:18:30;9.50;;;4.97;;
82176;SDS011;71758;48.714;9.584;2024-02-26T08:20:56;10.68;;;5.30;;
82176;SDS011;71758;48.714;9.584;2024-02-26T08:23:21;12.95;;;6.82;;
82176;SDS011;71758;48.714;9.584;2024-02-26T08:25:47;8.30;;;4.93;;
82176;SDS011;71758;48.714;9.584;2024-02-26T08:28:13;7.03;;;3.35;;
82176;SDS011;71758;48.714;9.584;2024-02-26T08:30:39;11.00;;;5.70;;
82176;SDS011;71758;48.714;9.584;2024-02-26T08:33:04;7.13;;;3.28;;
82176;SDS011;71758;48.714;9.584;2024-02-26T08:35:29;6.32;;;2.80;;
82176;SDS011;71758;48.714;9.584;2024-02-26T08:37:55;6.65;;;3.20;;
82176;SDS011;71758;48.714;9.584;2024-02-26T08:40:20;6.43;;;2.67;;
82176;SDS011;71758;48.714;9.584;2024-02-26T08:42:46;5.57;;;2.65;;
82176;SDS011;71758;48.714;9.584;2024-02-26T08:45:11;6.95;;;2.72;;
82176;SDS011;71758;48.714;9.584;2024-02-26T08:47:40;5.95;;;2.50;;
82176;SDS011;71758;48.714;9.584;2024-02-26T08:50:05;7.60;;;2.88;;
82176;SDS011;71758;48.714;9.584;2024-02-26T08:52:34;5.85;;;2.88;;
82176;SDS011;71758;48.714;9.584;2024-02-26T08:55:00;5.13;;;2.45;;
82176;SDS011;71758;48.714;9.584;2024-02-26T08:57:28;5.70;;;2.90;;
82176;SDS011;71758;48.714;9.584;2024-02-26T08:59:54;7.70;;;3.88;;
82176;SDS011;71758;48.714;9.584;2024-02-26T09:02:19;5.85;;;2.90;;
82176;SDS011;71758;48.714;9.584;2024-02-26T09:04:45;6.32;;;2.95;;
82176;SDS011;71758;48.714;9.584;2024-02-26T09:07:10;6.53;;;3.05;;
82176;SDS011;71758;48.714;9.584;2024-02-26T09:09:35;8.43;;;2.97;;
82176;SDS011;71758;48.714;9.584;2024-02-26T09:12:01;5.95;;;3.10;;
82176;SDS011;71758;48.714;9.584;2024-02-26T09:14:27;6.88;;;3.00;;
82176;SDS011;71758;48.714;9.584;2024-02-26T09:16:52;7.40;;;3.30;;
82176;SDS011;71758;48.714;9.584;2024-02-26T09:19:18;8.02;;;3.22;;
82176;SDS011;71758;48.714;9.584;2024-02-26T09:21:44;7.50;;;3.80;;
82176;SDS011;71758;48.714;9.584;2024-02-26T09:24:10;8.05;;;3.17;;
82176;SDS011;71758;48.714;9.584;2024-02-26T09:26:38;7.68;;;3.25;;
82176;SDS011;71758;48.714;9.584;2024-02-26T09:29:04;6.82;;;3.30;;
82176;SDS011;71758;48.714;9.584;2024-02-26T09:31:30;5.90;;;2.88;;
82176;SDS011;71758;48.714;9.584;2024-02-26T09:33:55;7.13;;;2.83;;
82176;SDS011;71758;48.714;9.584;2024-02-26T09:36:21;9.48;;;3.40;;
82176;SDS011;71758;48.714;9.584;2024-02-26T09:38:47;5.82;;;2.75;;
82176;SDS011;71758;48.714;9.584;2024-02-26T09:41:15;8.88;;;3.00;;
82176;SDS011;71758;48.714;9.584;2024-02-26T09:43:43;8.30;;;3.60;;
82176;SDS011;71758;48.714;9.584;2024-02-26T09:46:11;12.68;;;3.60;;
82176;SDS011;71758;48.714;9.584;2024-02-26T09:48:37;7.95;;;3.40;;
82176;SDS011;71758;48.714;9.584;2024-02-26T09:51:03;7.72;;;3.30;;
82176;SDS011;71758;48.714;9.584;2024-02-26T09:53:29;7.75;;;3.17;;
82176;SDS011;71758;48.714;9.584;2024-02-26T09:55:56;5.82;;;2.65;;
82176;SDS011;71758;48.714;9.584;2024-02-26T09:58:22;7.05;;;3.03;;
82176;SDS011;71758;48.714;9.584;2024-02-26T10:00:50;6.82;;;2.97;;
82176;SDS011;71758;48.714;9.584;2024-02-26T10:03:17;7.70;;;2.85;;
82176;SDS011;71758;48.714;9.584;2024-02-26T10:05:43;7.03;;;3.10;;
82176;SDS011;71758;48.714;9.584;2024-02-26T10:08:09;6.65;;;3.45;;
82176;SDS011;71758;48.714;9.584;2024-02-26T10:10:36;7.13;;;2.70;;
82176;SDS011;71758;48.714;9.584;2024-02-26T10:13:03;6.68;;;2.08;;
82176;SDS011;71758;48.714;9.584;2024-02-26T10:15:34;5.07;;;2.20;;
82176;SDS011;71758;48.714;9.584;2024-02-26T10:17:59;5.40;;;2.35;;
82176;SDS011;71758;48.714;9.584;2024-02-26T10:20:25;5.32;;;2.30;;
82176;SDS011;71758;48.714;9.584;2024-02-26T10:22:51;6.78;;;2.35;;
82176;SDS011;71758;48.714;9.584;2024-02-26T10:25:17;4.63;;;2.28;;
82176;SDS011;71758;48.714;9.584;2024-02-26T10:27:43;6.03;;;2.58;;
82176;SDS011;71758;48.714;9.584;2024-02-26T10:30:21;5.50;;;2.17;;
82176;SDS011;71758;48.714;9.584;2024-02-26T10:32:48;5.15;;;2.20;;
82176;SDS011;71758;48.714;9.584;2024-02-26T10:35:14;6.72;;;1.73;;
82176;SDS011;71758;48.714;9.584;2024-02-26T10:37:40;4.63;;;1.63;;
82176;SDS011;71758;48.714;9.584;2024-02-26T10:40:09;3.65;;;1.58;;
82176;SDS011;71758;48.714;9.584;2024-02-26T10:42:39;3.35;;;1.30;;
82176;SDS011;71758;48.714;9.584;2024-02-26T10:45:05;4.13;;;1.30;;
82176;SDS011;71758;48.714;9.584;2024-02-26T10:47:31;4.10;;;1.52;;
82176;SDS011;71758;48.714;9.584;2024-02-26T10:49:58;4.43;;;1.60;;
82176;SDS011;71758;48.714;9.584;2024-02-26T10:52:24;5.00;;;2.10;;
82176;SDS011;71758;48.714;9.584;2024-02-26T10:54:51;4.05;;;1.40;;
82176;SDS011;71758;48.714;9.584;2024-02-26T10:57:19;4.68;;;1.60;;
82176;SDS011;71758;48.714;9.584;2024-02-26T10:59:45;4.55;;;1.52;;
82176;SDS011;71758;48.714;9.584;2024-02-26T11:02:10;3.33;;;1.48;;
82176;SDS011;71758;48.714;9.584;2024-02-26T11:04:37;3.85;;;1.60;;
82176;SDS011;71758;48.714;9.584;2024-02-26T11:07:03;4.47;;;1.77;;
82176;SDS011;71758;48.714;9.584;2024-02-26T11:09:29;3.83;;;1.52;;
82176;SDS011;71758;48.714;9.584;2024-02-26T11:11:56;3.75;;;1.40;;
82176;SDS011;71758;48.714;9.584;2024-02-26T11:14:22;4.82;;;1.50;;
82176;SDS011;71758;48.714;9.584;2024-02-26T11:16:52;3.45;;;1.40;;
82176;SDS011;71758;48.714;9.584;2024-02-26T11:19:18;3.53;;;1.40;;
82176;SDS011;71758;48.714;9.584;2024-02-26T11:21:43;3.63;;;1.33;;
82176;SDS011;71758;48.714;9.584;2024-02-26T11:24:11;3.72;;;1.20;;
82176;SDS011;71758;48.714;9.584;2024-02-26T11:26:58;4.30;;;1.70;;
82176;SDS011;71758;48.714;9.584;2024-02-26T11:29:25;4.53;;;1.40;;
82176;SDS011;71758;48.714;9.584;2024-02-26T11:31:53;3.38;;;1.38;;
82176;SDS011;71758;48.714;9.584;2024-02-26T11:34:19;5.10;;;1.42;;
82176;SDS011;71758;48.714;9.584;2024-02-26T11:36:45;3.60;;;1.50;;
82176;SDS011;71758;48.714;9.584;2024-02-26T11:39:11;7.32;;;1.35;;
82176;SDS011;71758;48.714;9.584;2024-02-26T11:41:41;4.13;;;1.50;;
82176;SDS011;71758;48.714;9.584;2024-02-26T11:44:07;3.45;;;1.50;;
82176;SDS011;71758;48.714;9.584;2024-02-26T11:46:42;3.85;;;1.52;;
82176;SDS011;71758;48.714;9.584;2024-02-26T11:51:56;4.40;;;1.70;;
82176;SDS011;71758;48.714;9.584;2024-02-26T11:54:43;4.13;;;1.55;;
82176;SDS011;71758;48.714;9.584;2024-02-26T11:57:28;6.38;;;1.80;;
82176;SDS011;71758;48.714;9.584;2024-02-26T12:00:12;3.90;;;1.65;;
82176;SDS011;71758;48.714;9.584;2024-02-26T12:05:31;4.95;;;1.75;;
82176;SDS011;71758;48.714;9.584;2024-02-26T12:10:32;4.90;;;1.98;;
82176;SDS011;71758;48.714;9.584;2024-02-26T12:13:10;5.50;;;1.73;;
82176;SDS011;71758;48.714;9.584;2024-02-26T12:16:36;4.10;;;1.60;;
82176;SDS011;71758;48.714;9.584;2024-02-26T12:19:10;4.18;;;1.92;;
82176;SDS011;71758;48.714;9.584;2024-02-26T12:21:36;5.28;;;1.50;;
82176;SDS011;71758;48.714;9.584;2024-02-26T12:24:12;4.20;;;1.48;;
82176;SDS011;71758;48.714;9.584;2024-02-26T12:26:39;4.40;;;1.48;;
82176;SDS011;71758;48.714;9.584;2024-02-26T12:29:10;3.75;;;1.50;;
82176;SDS011;71758;48.714;9.584;2024-02-26T12:31:37;4.38;;;1.70;;
82176;SDS011;71758;48.714;9.584;2024-02-26T12:34:03;3.85;;;1.60;;
82176;SDS011;71758;48.714;9.584;2024-02-26T12:36:29;4.68;;;1.40;;
82176;SDS011;71758;48.714;9.584;2024-02-26T12:38:55;6.03;;;1.60;;
82176;SDS011;71758;48.714;9.584;2024-02-26T12:41:21;4.95;;;1.60;;
82176;SDS011;71758;48.714;9.584;2024-02-26T12:43:47;4.43;;;1.60;;
82176;SDS011;71758;48.714;9.584;2024-02-26T12:46:12;5.30;;;1.70;;
82176;SDS011;71758;48.714;9.584;2024-02-26T12:48:42;3.50;;;1.45;;
82176;SDS011;71758;48.714;9.584;2024-02-26T12:51:11;5.32;;;1.70;;
82176;SDS011;71758;48.714;9.584;2024-02-26T12:53:38;3.72;;;1.50;;
82176;SDS011;71758;48.714;9.584;2024-02-26T12:56:05;4.55;;;1.50;;
82176;SDS011;71758;48.714;9.584;2024-02-26T12:58:32;4.70;;;1.83;;
82176;SDS011;71758;48.714;9.584;2024-02-26T13:00:58;3.58;;;1.60;;
82176;SDS011;71758;48.714;9.584;2024-02-26T13:03:24;6.43;;;1.85;;
82176;SDS011;71758;48.714;9.584;2024-02-26T13:06:02;4.20;;;1.77;;
82176;SDS011;71758;48.714;9.584;2024-02-26T13:08:31;6.03;;;1.75;;
82176;SDS011;71758;48.714;9.584;2024-02-26T13:10:58;4.57;;;1.70;;
82176;SDS011;71758;48.714;9.584;2024-02-26T13:13:25;5.95;;;1.80;;
82176;SDS011;71758;48.714;9.584;2024-02-26T13:15:50;4.07;;;1.63;;
82176;SDS011;71758;48.714;9.584;2024-02-26T13:18:32;3.85;;;1.63;;
82176;SDS011;71758;48.714;9.584;2024-02-26T13:21:11;3.90;;;1.58;;
82176;SDS011;71758;48.714;9.584;2024-02-26T13:23:38;6.05;;;1.90;;
82176;SDS011;71758;48.714;9.584;2024-02-26T13:26:04;6.45;;;1.73;;
82176;SDS011;71758;48.714;9.584;2024-02-26T13:28:30;5.22;;;1.58;;
82176;SDS011;71758;48.714;9.584;2024-02-26T13:30:57;4.00;;;1.80;;
82176;SDS011;71758;48.714;9.584;2024-02-26T13:33:23;4.50;;;1.83;;
82176;SDS011;71758;48.714;9.584;2024-02-26T13:35:49;5.10;;;1.92;;
82176;SDS011;71758;48.714;9.584;2024-02-26T13:38:16;4.85;;;1.60;;
82176;SDS011;71758;48.714;9.584;2024-02-26T13:40:42;4.78;;;1.92;;
82176;SDS011;71758;48.714;9.584;2024-02-26T13:43:07;5.30;;;1.70;;
82176;SDS011;71758;48.714;9.584;2024-02-26T13:45:36;5.32;;;1.98;;
82176;SDS011;71758;48.714;9.584;2024-02-26T13:48:03;4.80;;;2.00;;
82176;SDS011;71758;48.714;9.584;2024-02-26T13:50:35;6.35;;;1.90;;
82176;SDS011;71758;48.714;9.584;2024-02-26T13:53:00;5.32;;;2.30;;
82176;SDS011;71758;48.714;9.584;2024-02-26T13:55:26;5.55;;;2.35;;
82176;SDS011;71758;48.714;9.584;2024-02-26T13:57:53;5.60;;;2.15;;
82176;SDS011;71758;48.714;9.584;2024-02-26T14:00:22;9.00;;;2.00;;
82176;SDS011;71758;48.714;9.584;2024-02-26T14:02:47;5.43;;;2.33;;
82176;SDS011;71758;48.714;9.584;2024-02-26T14:05:13;5.30;;;2.13;;
82176;SDS011;71758;48.714;9.584;2024-02-26T14:07:38;7.30;;;2.28;;
82176;SDS011;71758;48.714;9.584;2024-02-26T14:10:04;5.07;;;2.25;;
82176;SDS011;71758;48.714;9.584;2024-02-26T14:12:30;7.05;;;2.30;;
82176;SDS011;71758;48.714;9.584;2024-02-26T14:14:55;9.48;;;2.22;;
82176;SDS011;71758;48.714;9.584;2024-02-26T14:17:21;5.00;;;2.22;;
82176;SDS011;71758;48.714;9.584;2024-02-26T14:19:47;5.20;;;2.25;;
82176;SDS011;71758;48.714;9.584;2024-02-26T14:22:13;5.70;;;2.20;;
82176;SDS011;71758;48.714;9.584;2024-02-26T14:24:39;4.55;;;1.92;;
82176;SDS011;71758;48.714;9.584;2024-02-26T14:27:05;4.95;;;2.30;;
82176;SDS011;71758;48.714;9.584;2024-02-26T14:29:33;5.80;;;2.50;;
82176;SDS011;71758;48.714;9.584;2024-02-26T14:31:58;5.15;;;2.38;;
82176;SDS011;71758;48.714;9.584;2024-02-26T14:34:23;5.03;;;2.38;;
82176;SDS011;71758;48.714;9.584;2024-02-26T14:36:49;5.35;;;2.63;;
82176;SDS011;71758;48.714;9.584;2024-02-26T14:39:15;5.25;;;2.70;;
82176;SDS011;71758;48.714;9.584;2024-02-26T14:41:41;4.68;;;2.40;;
82176;SDS011;71758;48.714;9.584;2024-02-26T14:44:07;7.43;;;2.80;;
82176;SDS011;71758;48.714;9.584;2024-02-26T14:46:33;8.27;;;2.70;;
82176;SDS011;71758;48.714;9.584;2024-02-26T14:48:58;6.32;;;2.55;;
82176;SDS011;71758;48.714;9.584;2024-02-26T14:51:23;6.22;;;2.60;;
82176;SDS011;71758;48.714;9.584;2024-02-26T14:53:49;6.38;;;3.20;;
82176;SDS011;71758;48.714;9.584;2024-02-26T14:56:14;7.80;;;3.38;;